sensor_id;sensor_type;location;lat;lon;timestamp;P1;durP1;ratioP1;P2;durP2;ratioP2
15476;SDS011;7840;42.702;23.296;2022-07-09T00:01:34;7.53;;;6.93;;
15476;SDS011;7840;42.702;23.296;2022-07-09T00:04:02;8.52;;;7.82;;
15476;SDS011;7840;42.702;23.296;2022-07-09T00:06:31;8.32;;;7.57;;
15476;SDS011;7840;42.702;23.296;2022-07-09T00:08:58;8.50;;;7.80;;
15476;SDS011;7840;42.702;23.296;2022-07-09T00:11:26;8.25;;;7.45;;
15476;SDS011;7840;42.702;23.296;2022-07-09T00:13:54;7.10;;;6.60;;
15476;SDS011;7840;42.702;23.296;2022-07-09T00:16:21;7.10;;;6.50;;
15476;SDS011;7840;42.702;23.296;2022-07-09T00:18:49;7.38;;;6.68;;
15476;SDS011;7840;42.702;23.296;2022-07-09T00:21:17;7.72;;;7.10;;
15476;SDS011;7840;42.702;23.296;2022-07-09T00:23:47;6.47;;;5.97;;
15476;SDS011;7840;42.702;23.296;2022-07-09T00:26:14;6.78;;;6.28;;
15476;SDS011;7840;42.702;23.296;2022-07-09T00:28:43;7.07;;;6.57;;
15476;SDS011;7840;42.702;23.296;2022-07-09T00:31:11;6.65;;;6.05;;
15476;SDS011;7840;42.702;23.296;2022-07-09T00:33:39;6.30;;;5.80;;
15476;SDS011;7840;42.702;23.296;2022-07-09T00:36:06;6.47;;;5.97;;
15476;SDS011;7840;42.702;23.296;2022-07-09T00:38:34;6.55;;;6.05;;
15476;SDS011;7840;42.702;23.296;2022-07-09T00:41:03;6.60;;;6.10;;
15476;SDS011;7840;42.702;23.296;2022-07-09T00:43:31;6.93;;;6.43;;
15476;SDS011;7840;42.702;23.296;2022-07-09T00:45:58;6.53;;;6.07;;
15476;SDS011;7840;42.702;23.296;2022-07-09T00:48:29;7.10;;;6.50;;
15476;SDS011;7840;42.702;23.296;2022-07-09T00:50:57;6.13;;;5.68;;
15476;SDS011;7840;42.702;23.296;2022-07-09T00:53:25;6.30;;;5.70;;
15476;SDS011;7840;42.702;23.296;2022-07-09T00:55:53;5.63;;;5.22;;
15476;SDS011;7840;42.702;23.296;2022-07-09T00:58:24;5.50;;;5.10;;
15476;SDS011;7840;42.702;23.296;2022-07-09T01:01:03;6.10;;;5.60;;
15476;SDS011;7840;42.702;23.296;2022-07-09T01:03:32;6.00;;;5.50;;
15476;SDS011;7840;42.702;23.296;2022-07-09T01:06:00;5.97;;;5.50;;
15476;SDS011;7840;42.702;23.296;2022-07-09T01:08:28;6.00;;;5.40;;
15476;SDS011;7840;42.702;23.296;2022-07-09T01:10:56;5.97;;;5.47;;
15476;SDS011;7840;42.702;23.296;2022-07-09T01:13:29;6.22;;;5.72;;
15476;SDS011;7840;42.702;23.296;2022-07-09T01:15:57;5.90;;;5.50;;
15476;SDS011;7840;42.702;23.296;2022-07-09T01:18:25;5.60;;;5.20;;
15476;SDS011;7840;42.702;23.296;2022-07-09T01:20:54;7.32;;;5.70;;
15476;SDS011;7840;42.702;23.296;2022-07-09T01:23:22;5.47;;;4.97;;
15476;SDS011;7840;42.702;23.296;2022-07-09T01:25:51;5.38;;;4.97;;
15476;SDS011;7840;42.702;23.296;2022-07-09T01:28:21;7.03;;;5.13;;
15476;SDS011;7840;42.702;23.296;2022-07-09T01:30:48;5.22;;;4.80;;
15476;SDS011;7840;42.702;23.296;2022-07-09T01:33:16;5.38;;;4.88;;
15476;SDS011;7840;42.702;23.296;2022-07-09T01:35:43;7.25;;;5.18;;
15476;SDS011;7840;42.702;23.296;2022-07-09T01:38:13;5.78;;;5.18;;
15476;SDS011;7840;42.702;23.296;2022-07-09T01:40:41;5.40;;;5.00;;
15476;SDS011;7840;42.702;23.296;2022-07-09T01:43:09;5.05;;;4.70;;
15476;SDS011;7840;42.702;23.296;2022-07-09T01:45:38;5.30;;;4.90;;
15476;SDS011;7840;42.702;23.296;2022-07-09T01:48:06;5.22;;;4.82;;
15476;SDS011;7840;42.702;23.296;2022-07-09T01:50:33;5.68;;;5.28;;
15476;SDS011;7840;42.702;23.296;2022-07-09T01:53:01;5.95;;;5.05;;
15476;SDS011;7840;42.702;23.296;2022-07-09T01:55:31;5.00;;;4.60;;
15476;SDS011;7840;42.702;23.296;2022-07-09T01:57:59;5.18;;;4.85;;
15476;SDS011;7840;42.702;23.296;2022-07-09T02:00:27;4.90;;;4.60;;
15476;SDS011;7840;42.702;23.296;2022-07-09T02:02:55;5.53;;;5.03;;
15476;SDS011;7840;42.702;23.296;2022-07-09T02:05:23;4.63;;;4.22;;
15476;SDS011;7840;42.702;23.296;2022-07-09T02:07:50;5.22;;;4.82;;
15476;SDS011;7840;42.702;23.296;2022-07-09T02:10:18;4.93;;;4.53;;
15476;SDS011;7840;42.702;23.296;2022-07-09T02:12:47;5.45;;;4.88;;
15476;SDS011;7840;42.702;23.296;2022-07-09T02:15:16;4.50;;;4.10;;
15476;SDS011;7840;42.702;23.296;2022-07-09T02:17:47;5.55;;;4.38;;
15476;SDS011;7840;42.702;23.296;2022-07-09T02:20:14;4.22;;;3.92;;
15476;SDS011;7840;42.702;23.296;2022-07-09T02:22:42;4.32;;;3.90;;
15476;SDS011;7840;42.702;23.296;2022-07-09T02:25:10;5.22;;;4.40;;
15476;SDS011;7840;42.702;23.296;2022-07-09T02:27:38;5.50;;;4.10;;
15476;SDS011;7840;42.702;23.296;2022-07-09T02:30:07;4.63;;;4.22;;
15476;SDS011;7840;42.702;23.296;2022-07-09T02:32:35;4.20;;;3.90;;
15476;SDS011;7840;42.702;23.296;2022-07-09T02:35:04;4.22;;;3.92;;
15476;SDS011;7840;42.702;23.296;2022-07-09T02:37:32;4.20;;;3.78;;
15476;SDS011;7840;42.702;23.296;2022-07-09T02:40:00;4.45;;;3.83;;
15476;SDS011;7840;42.702;23.296;2022-07-09T02:42:28;4.00;;;3.80;;
15476;SDS011;7840;42.702;23.296;2022-07-09T02:44:56;4.05;;;3.70;;
15476;SDS011;7840;42.702;23.296;2022-07-09T02:47:25;4.50;;;4.20;;
15476;SDS011;7840;42.702;23.296;2022-07-09T02:49:52;4.45;;;4.15;;
15476;SDS011;7840;42.702;23.296;2022-07-09T02:52:21;3.83;;;3.60;;
15476;SDS011;7840;42.702;23.296;2022-07-09T02:54:49;3.80;;;3.60;;
15476;SDS011;7840;42.702;23.296;2022-07-09T02:57:19;3.95;;;3.63;;
15476;SDS011;7840;42.702;23.296;2022-07-09T02:59:46;4.60;;;4.20;;
15476;SDS011;7840;42.702;23.296;2022-07-09T03:02:14;5.00;;;4.60;;
15476;SDS011;7840;42.702;23.296;2022-07-09T03:04:43;5.00;;;4.45;;
15476;SDS011;7840;42.702;23.296;2022-07-09T03:07:10;5.80;;;4.97;;
15476;SDS011;7840;42.702;23.296;2022-07-09T03:09:39;4.10;;;3.80;;
15476;SDS011;7840;42.702;23.296;2022-07-09T03:12:07;4.50;;;4.10;;
15476;SDS011;7840;42.702;23.296;2022-07-09T03:14:35;4.35;;;4.00;;
15476;SDS011;7840;42.702;23.296;2022-07-09T03:17:03;4.13;;;3.83;;
15476;SDS011;7840;42.702;23.296;2022-07-09T03:19:30;5.80;;;4.38;;
15476;SDS011;7840;42.702;23.296;2022-07-09T03:22:02;4.90;;;4.60;;
15476;SDS011;7840;42.702;23.296;2022-07-09T03:24:32;4.93;;;4.53;;
15476;SDS011;7840;42.702;23.296;2022-07-09T03:27:00;4.18;;;3.85;;
15476;SDS011;7840;42.702;23.296;2022-07-09T03:29:29;4.35;;;3.97;;
15476;SDS011;7840;42.702;23.296;2022-07-09T03:31:57;4.28;;;3.97;;
15476;SDS011;7840;42.702;23.296;2022-07-09T03:34:24;4.32;;;4.03;;
15476;SDS011;7840;42.702;23.296;2022-07-09T03:36:52;4.43;;;4.03;;
15476;SDS011;7840;42.702;23.296;2022-07-09T03:39:22;4.30;;;4.00;;
15476;SDS011;7840;42.702;23.296;2022-07-09T03:42:03;4.35;;;4.05;;
15476;SDS011;7840;42.702;23.296;2022-07-09T03:44:31;4.53;;;4.22;;
15476;SDS011;7840;42.702;23.296;2022-07-09T03:46:59;4.57;;;4.18;;
15476;SDS011;7840;42.702;23.296;2022-07-09T03:49:35;4.57;;;4.18;;
15476;SDS011;7840;42.702;23.296;2022-07-09T03:52:03;4.43;;;4.10;;
15476;SDS011;7840;42.702;23.296;2022-07-09T03:54:33;4.95;;;4.55;;
15476;SDS011;7840;42.702;23.296;2022-07-09T03:57:00;4.45;;;4.15;;
15476;SDS011;7840;42.702;23.296;2022-07-09T03:59:28;4.22;;;3.92;;
15476;SDS011;7840;42.702;23.296;2022-07-09T04:01:56;4.95;;;4.55;;
15476;SDS011;7840;42.702;23.296;2022-07-09T04:04:23;4.13;;;3.85;;
15476;SDS011;7840;42.702;23.296;2022-07-09T04:06:51;7.47;;;4.50;;
15476;SDS011;7840;42.702;23.296;2022-07-09T04:09:20;5.68;;;4.45;;
15476;SDS011;7840;42.702;23.296;2022-07-09T04:11:49;5.03;;;4.63;;
15476;SDS011;7840;42.702;23.296;2022-07-09T04:14:17;4.75;;;4.45;;
15476;SDS011;7840;42.702;23.296;2022-07-09T04:16:45;4.40;;;4.10;;
15476;SDS011;7840;42.702;23.296;2022-07-09T04:19:12;5.00;;;4.70;;
15476;SDS011;7840;42.702;23.296;2022-07-09T04:21:40;4.57;;;4.10;;
15476;SDS011;7840;42.702;23.296;2022-07-09T04:24:11;4.60;;;4.30;;
15476;SDS011;7840;42.702;23.296;2022-07-09T04:26:40;4.60;;;4.30;;
15476;SDS011;7840;42.702;23.296;2022-07-09T04:29:10;4.40;;;4.10;;
15476;SDS011;7840;42.702;23.296;2022-07-09T04:31:37;4.75;;;4.35;;
15476;SDS011;7840;42.702;23.296;2022-07-09T04:34:05;4.78;;;4.40;;
15476;SDS011;7840;42.702;23.296;2022-07-09T04:36:32;4.70;;;4.40;;
15476;SDS011;7840;42.702;23.296;2022-07-09T04:39:00;4.20;;;3.90;;
15476;SDS011;7840;42.702;23.296;2022-07-09T04:41:28;5.05;;;4.57;;
15476;SDS011;7840;42.702;23.296;2022-07-09T04:43:58;5.20;;;4.40;;
15476;SDS011;7840;42.702;23.296;2022-07-09T04:46:27;4.20;;;3.90;;
15476;SDS011;7840;42.702;23.296;2022-07-09T04:48:57;5.45;;;4.80;;
15476;SDS011;7840;42.702;23.296;2022-07-09T04:51:25;6.20;;;4.43;;
15476;SDS011;7840;42.702;23.296;2022-07-09T04:53:53;4.88;;;4.45;;
15476;SDS011;7840;42.702;23.296;2022-07-09T04:56:20;4.80;;;4.38;;
15476;SDS011;7840;42.702;23.296;2022-07-09T04:58:48;6.43;;;4.40;;
15476;SDS011;7840;42.702;23.296;2022-07-09T05:01:17;4.13;;;3.83;;
15476;SDS011;7840;42.702;23.296;2022-07-09T05:03:46;4.45;;;4.15;;
15476;SDS011;7840;42.702;23.296;2022-07-09T05:06:14;4.82;;;4.40;;
15476;SDS011;7840;42.702;23.296;2022-07-09T05:08:43;5.00;;;4.18;;
15476;SDS011;7840;42.702;23.296;2022-07-09T05:11:10;4.65;;;4.30;;
15476;SDS011;7840;42.702;23.296;2022-07-09T05:13:38;5.40;;;4.25;;
15476;SDS011;7840;42.702;23.296;2022-07-09T05:16:06;4.85;;;4.40;;
15476;SDS011;7840;42.702;23.296;2022-07-09T05:18:35;4.32;;;3.72;;
15476;SDS011;7840;42.702;23.296;2022-07-09T05:21:05;4.53;;;3.88;;
15476;SDS011;7840;42.702;23.296;2022-07-09T05:23:33;3.92;;;3.70;;
15476;SDS011;7840;42.702;23.296;2022-07-09T05:26:06;4.18;;;3.78;;
15476;SDS011;7840;42.702;23.296;2022-07-09T05:28:37;4.80;;;3.92;;
15476;SDS011;7840;42.702;23.296;2022-07-09T05:31:04;4.50;;;4.20;;
15476;SDS011;7840;42.702;23.296;2022-07-09T05:33:32;6.45;;;3.95;;
15476;SDS011;7840;42.702;23.296;2022-07-09T05:36:02;4.18;;;3.88;;
15476;SDS011;7840;42.702;23.296;2022-07-09T05:38:32;4.35;;;3.90;;
15476;SDS011;7840;42.702;23.296;2022-07-09T05:40:59;4.38;;;4.03;;
15476;SDS011;7840;42.702;23.296;2022-07-09T05:43:27;3.50;;;3.20;;
15476;SDS011;7840;42.702;23.296;2022-07-09T05:45:54;4.35;;;3.95;;
15476;SDS011;7840;42.702;23.296;2022-07-09T05:48:22;4.25;;;3.70;;
15476;SDS011;7840;42.702;23.296;2022-07-09T05:50:52;3.92;;;3.63;;
15476;SDS011;7840;42.702;23.296;2022-07-09T05:53:22;5.40;;;3.65;;
15476;SDS011;7840;42.702;23.296;2022-07-09T05:55:50;3.85;;;3.55;;
15476;SDS011;7840;42.702;23.296;2022-07-09T05:58:18;4.53;;;3.15;;
15476;SDS011;7840;42.702;23.296;2022-07-09T06:00:52;3.78;;;3.47;;
15476;SDS011;7840;42.702;23.296;2022-07-09T06:03:20;3.90;;;3.17;;
15476;SDS011;7840;42.702;23.296;2022-07-09T06:05:47;3.90;;;3.55;;
15476;SDS011;7840;42.702;23.296;2022-07-09T06:08:15;3.55;;;3.20;;
15476;SDS011;7840;42.702;23.296;2022-07-09T06:10:44;5.28;;;3.70;;
15476;SDS011;7840;42.702;23.296;2022-07-09T06:13:13;3.70;;;3.30;;
15476;SDS011;7840;42.702;23.296;2022-07-09T06:15:40;4.13;;;3.78;;
15476;SDS011;7840;42.702;23.296;2022-07-09T06:18:08;3.60;;;3.40;;
15476;SDS011;7840;42.702;23.296;2022-07-09T06:20:36;4.70;;;4.03;;
15476;SDS011;7840;42.702;23.296;2022-07-09T06:23:04;4.00;;;3.67;;
15476;SDS011;7840;42.702;23.296;2022-07-09T06:25:33;4.35;;;4.05;;
15476;SDS011;7840;42.702;23.296;2022-07-09T06:28:04;4.40;;;3.95;;
15476;SDS011;7840;42.702;23.296;2022-07-09T06:30:32;4.05;;;3.70;;
15476;SDS011;7840;42.702;23.296;2022-07-09T06:33:00;4.07;;;3.78;;
15476;SDS011;7840;42.702;23.296;2022-07-09T06:35:28;4.13;;;3.83;;
15476;SDS011;7840;42.702;23.296;2022-07-09T06:37:56;3.50;;;3.30;;
15476;SDS011;7840;42.702;23.296;2022-07-09T06:40:32;4.38;;;3.97;;
15476;SDS011;7840;42.702;23.296;2022-07-09T06:43:00;4.07;;;3.75;;
15476;SDS011;7840;42.702;23.296;2022-07-09T06:45:34;3.83;;;3.60;;
15476;SDS011;7840;42.702;23.296;2022-07-09T06:48:02;3.65;;;3.45;;
15476;SDS011;7840;42.702;23.296;2022-07-09T06:50:30;3.70;;;3.50;;
15476;SDS011;7840;42.702;23.296;2022-07-09T06:53:00;3.83;;;3.53;;
15476;SDS011;7840;42.702;23.296;2022-07-09T06:55:27;4.20;;;3.90;;
15476;SDS011;7840;42.702;23.296;2022-07-09T06:57:56;4.82;;;3.70;;
15476;SDS011;7840;42.702;23.296;2022-07-09T07:00:26;4.75;;;4.35;;
15476;SDS011;7840;42.702;23.296;2022-07-09T07:02:54;4.30;;;4.00;;
15476;SDS011;7840;42.702;23.296;2022-07-09T07:05:24;3.90;;;3.70;;
15476;SDS011;7840;42.702;23.296;2022-07-09T07:07:52;4.72;;;4.00;;
15476;SDS011;7840;42.702;23.296;2022-07-09T07:10:20;4.68;;;4.28;;
15476;SDS011;7840;42.702;23.296;2022-07-09T07:12:47;4.70;;;4.30;;
15476;SDS011;7840;42.702;23.296;2022-07-09T07:15:15;4.22;;;3.92;;
15476;SDS011;7840;42.702;23.296;2022-07-09T07:17:45;4.60;;;4.20;;
15476;SDS011;7840;42.702;23.296;2022-07-09T07:20:14;5.47;;;4.00;;
15476;SDS011;7840;42.702;23.296;2022-07-09T07:22:43;4.82;;;4.32;;
15476;SDS011;7840;42.702;23.296;2022-07-09T07:25:12;4.80;;;4.40;;
15476;SDS011;7840;42.702;23.296;2022-07-09T07:27:40;4.30;;;4.00;;
15476;SDS011;7840;42.702;23.296;2022-07-09T07:30:08;4.47;;;4.07;;
15476;SDS011;7840;42.702;23.296;2022-07-09T07:32:36;4.18;;;3.75;;
15476;SDS011;7840;42.702;23.296;2022-07-09T07:35:06;5.18;;;4.68;;
15476;SDS011;7840;42.702;23.296;2022-07-09T07:37:33;3.85;;;3.55;;
15476;SDS011;7840;42.702;23.296;2022-07-09T07:40:01;4.40;;;4.10;;
15476;SDS011;7840;42.702;23.296;2022-07-09T07:42:45;3.75;;;3.55;;
15476;SDS011;7840;42.702;23.296;2022-07-09T07:45:13;3.83;;;3.53;;
15476;SDS011;7840;42.702;23.296;2022-07-09T07:47:40;4.25;;;3.95;;
15476;SDS011;7840;42.702;23.296;2022-07-09T07:50:09;4.53;;;3.40;;
15476;SDS011;7840;42.702;23.296;2022-07-09T07:52:50;3.75;;;3.45;;
15476;SDS011;7840;42.702;23.296;2022-07-09T07:55:18;4.18;;;3.83;;
15476;SDS011;7840;42.702;23.296;2022-07-09T07:57:48;3.75;;;3.45;;
15476;SDS011;7840;42.702;23.296;2022-07-09T08:00:19;3.88;;;3.60;;
15476;SDS011;7840;42.702;23.296;2022-07-09T08:02:47;3.70;;;3.38;;
15476;SDS011;7840;42.702;23.296;2022-07-09T08:05:19;5.97;;;3.95;;
15476;SDS011;7840;42.702;23.296;2022-07-09T08:07:46;3.33;;;3.13;;
15476;SDS011;7840;42.702;23.296;2022-07-09T08:10:14;3.88;;;3.58;;
15476;SDS011;7840;42.702;23.296;2022-07-09T08:12:42;3.67;;;3.45;;
15476;SDS011;7840;42.702;23.296;2022-07-09T08:15:12;3.13;;;2.90;;
15476;SDS011;7840;42.702;23.296;2022-07-09T08:17:41;2.67;;;2.47;;
15476;SDS011;7840;42.702;23.296;2022-07-09T08:20:09;2.97;;;2.72;;
15476;SDS011;7840;42.702;23.296;2022-07-09T08:22:39;3.35;;;2.88;;
15476;SDS011;7840;42.702;23.296;2022-07-09T08:25:07;3.17;;;2.95;;
15476;SDS011;7840;42.702;23.296;2022-07-09T08:27:35;3.03;;;2.83;;
15476;SDS011;7840;42.702;23.296;2022-07-09T08:30:03;2.90;;;2.70;;
15476;SDS011;7840;42.702;23.296;2022-07-09T08:32:37;2.92;;;2.70;;
15476;SDS011;7840;42.702;23.296;2022-07-09T08:35:05;2.97;;;2.67;;
15476;SDS011;7840;42.702;23.296;2022-07-09T08:37:33;2.90;;;2.70;;
15476;SDS011;7840;42.702;23.296;2022-07-09T08:40:03;3.22;;;2.92;;
15476;SDS011;7840;42.702;23.296;2022-07-09T08:42:32;3.90;;;3.00;;
15476;SDS011;7840;42.702;23.296;2022-07-09T08:45:00;3.30;;;2.90;;
15476;SDS011;7840;42.702;23.296;2022-07-09T08:47:29;3.40;;;3.10;;
15476;SDS011;7840;42.702;23.296;2022-07-09T08:49:58;3.50;;;3.20;;
15476;SDS011;7840;42.702;23.296;2022-07-09T08:52:30;3.75;;;3.03;;
15476;SDS011;7840;42.702;23.296;2022-07-09T08:55:06;3.83;;;3.42;;
15476;SDS011;7840;42.702;23.296;2022-07-09T08:57:36;3.72;;;3.20;;
15476;SDS011;7840;42.702;23.296;2022-07-09T09:00:21;4.07;;;3.78;;
15476;SDS011;7840;42.702;23.296;2022-07-09T09:02:48;4.82;;;3.72;;
15476;SDS011;7840;42.702;23.296;2022-07-09T09:05:16;4.30;;;4.00;;
15476;SDS011;7840;42.702;23.296;2022-07-09T09:07:44;4.05;;;3.70;;
15476;SDS011;7840;42.702;23.296;2022-07-09T09:10:21;4.05;;;3.55;;
15476;SDS011;7840;42.702;23.296;2022-07-09T09:12:55;4.28;;;3.92;;
15476;SDS011;7840;42.702;23.296;2022-07-09T09:15:26;4.15;;;3.80;;
15476;SDS011;7840;42.702;23.296;2022-07-09T09:17:54;5.18;;;4.40;;
15476;SDS011;7840;42.702;23.296;2022-07-09T09:20:23;4.85;;;4.45;;
15476;SDS011;7840;42.702;23.296;2022-07-09T09:22:52;5.05;;;4.63;;
15476;SDS011;7840;42.702;23.296;2022-07-09T09:25:28;4.65;;;4.25;;
15476;SDS011;7840;42.702;23.296;2022-07-09T09:28:04;6.75;;;5.10;;
15476;SDS011;7840;42.702;23.296;2022-07-09T09:30:32;6.60;;;4.32;;
15476;SDS011;7840;42.702;23.296;2022-07-09T09:33:06;4.75;;;4.28;;
15476;SDS011;7840;42.702;23.296;2022-07-09T09:35:48;4.70;;;4.28;;
15476;SDS011;7840;42.702;23.296;2022-07-09T09:38:21;4.95;;;4.55;;
15476;SDS011;7840;42.702;23.296;2022-07-09T09:40:58;5.45;;;4.40;;
15476;SDS011;7840;42.702;23.296;2022-07-09T09:43:25;7.10;;;4.78;;
15476;SDS011;7840;42.702;23.296;2022-07-09T09:46:01;5.07;;;4.72;;
15476;SDS011;7840;42.702;23.296;2022-07-09T09:48:30;4.38;;;4.07;;
15476;SDS011;7840;42.702;23.296;2022-07-09T09:51:01;5.10;;;4.70;;
15476;SDS011;7840;42.702;23.296;2022-07-09T09:53:31;4.47;;;4.18;;
15476;SDS011;7840;42.702;23.296;2022-07-09T09:56:00;5.72;;;5.28;;
15476;SDS011;7840;42.702;23.296;2022-07-09T09:58:29;11.05;;;10.15;;
15476;SDS011;7840;42.702;23.296;2022-07-09T10:01:08;5.78;;;5.38;;
15476;SDS011;7840;42.702;23.296;2022-07-09T10:03:38;6.57;;;5.28;;
15476;SDS011;7840;42.702;23.296;2022-07-09T10:06:06;4.78;;;4.30;;
15476;SDS011;7840;42.702;23.296;2022-07-09T10:08:34;4.97;;;4.60;;
15476;SDS011;7840;42.702;23.296;2022-07-09T10:11:03;6.35;;;4.55;;
15476;SDS011;7840;42.702;23.296;2022-07-09T10:13:31;4.82;;;4.43;;
15476;SDS011;7840;42.702;23.296;2022-07-09T10:15:59;6.05;;;5.45;;
15476;SDS011;7840;42.702;23.296;2022-07-09T10:18:26;10.23;;;6.05;;
15476;SDS011;7840;42.702;23.296;2022-07-09T10:20:54;5.95;;;5.45;;
15476;SDS011;7840;42.702;23.296;2022-07-09T10:23:26;5.35;;;4.95;;
15476;SDS011;7840;42.702;23.296;2022-07-09T10:25:54;5.35;;;4.82;;
15476;SDS011;7840;42.702;23.296;2022-07-09T10:28:29;6.13;;;4.57;;
15476;SDS011;7840;42.702;23.296;2022-07-09T10:31:07;4.85;;;4.30;;
15476;SDS011;7840;42.702;23.296;2022-07-09T10:33:37;4.03;;;3.72;;
15476;SDS011;7840;42.702;23.296;2022-07-09T10:36:15;3.88;;;3.50;;
15476;SDS011;7840;42.702;23.296;2022-07-09T10:38:52;3.78;;;3.47;;
15476;SDS011;7840;42.702;23.296;2022-07-09T10:41:21;3.90;;;3.60;;
15476;SDS011;7840;42.702;23.296;2022-07-09T10:43:51;3.20;;;3.00;;
15476;SDS011;7840;42.702;23.296;2022-07-09T10:46:22;4.00;;;3.22;;
15476;SDS011;7840;42.702;23.296;2022-07-09T10:48:50;3.15;;;2.95;;
15476;SDS011;7840;42.702;23.296;2022-07-09T10:51:19;2.63;;;2.50;;
15476;SDS011;7840;42.702;23.296;2022-07-09T10:53:48;3.38;;;3.10;;
15476;SDS011;7840;42.702;23.296;2022-07-09T10:56:16;3.67;;;2.55;;
15476;SDS011;7840;42.702;23.296;2022-07-09T10:58:45;2.40;;;2.20;;
15476;SDS011;7840;42.702;23.296;2022-07-09T11:01:19;2.67;;;2.47;;
15476;SDS011;7840;42.702;23.296;2022-07-09T11:03:49;2.70;;;2.50;;
15476;SDS011;7840;42.702;23.296;2022-07-09T11:06:17;2.63;;;2.45;;
15476;SDS011;7840;42.702;23.296;2022-07-09T11:08:44;3.40;;;3.20;;
15476;SDS011;7840;42.702;23.296;2022-07-09T11:11:12;4.03;;;3.22;;
15476;SDS011;7840;42.702;23.296;2022-07-09T11:13:49;4.25;;;3.65;;
15476;SDS011;7840;42.702;23.296;2022-07-09T11:16:22;3.95;;;3.30;;
15476;SDS011;7840;42.702;23.296;2022-07-09T11:18:52;4.75;;;3.42;;
15476;SDS011;7840;42.702;23.296;2022-07-09T11:21:21;3.10;;;2.75;;
15476;SDS011;7840;42.702;23.296;2022-07-09T11:23:49;4.32;;;3.33;;
15476;SDS011;7840;42.702;23.296;2022-07-09T11:26:17;3.85;;;3.42;;
15476;SDS011;7840;42.702;23.296;2022-07-09T11:28:45;3.17;;;2.70;;
15476;SDS011;7840;42.702;23.296;2022-07-09T11:31:13;5.90;;;2.92;;
15476;SDS011;7840;42.702;23.296;2022-07-09T11:33:42;2.90;;;2.70;;
15476;SDS011;7840;42.702;23.296;2022-07-09T11:36:34;3.03;;;2.83;;
15476;SDS011;7840;42.702;23.296;2022-07-09T11:39:03;2.83;;;2.63;;
15476;SDS011;7840;42.702;23.296;2022-07-09T11:41:39;2.45;;;2.25;;
15476;SDS011;7840;42.702;23.296;2022-07-09T11:44:08;2.60;;;2.40;;
15476;SDS011;7840;42.702;23.296;2022-07-09T11:46:37;2.60;;;2.40;;
15476;SDS011;7840;42.702;23.296;2022-07-09T11:49:14;2.58;;;2.38;;
15476;SDS011;7840;42.702;23.296;2022-07-09T11:51:42;3.15;;;2.50;;
15476;SDS011;7840;42.702;23.296;2022-07-09T11:54:10;2.38;;;2.17;;
15476;SDS011;7840;42.702;23.296;2022-07-09T11:56:41;2.85;;;2.25;;
15476;SDS011;7840;42.702;23.296;2022-07-09T11:59:10;2.50;;;2.30;;
15476;SDS011;7840;42.702;23.296;2022-07-09T12:01:52;2.40;;;2.20;;
15476;SDS011;7840;42.702;23.296;2022-07-09T12:04:22;2.30;;;2.10;;
15476;SDS011;7840;42.702;23.296;2022-07-09T12:06:50;3.08;;;2.20;;
15476;SDS011;7840;42.702;23.296;2022-07-09T12:09:26;2.75;;;2.38;;
15476;SDS011;7840;42.702;23.296;2022-07-09T12:11:56;2.60;;;2.40;;
15476;SDS011;7840;42.702;23.296;2022-07-09T12:14:27;3.70;;;2.40;;
15476;SDS011;7840;42.702;23.296;2022-07-09T12:16:54;2.63;;;2.20;;
15476;SDS011;7840;42.702;23.296;2022-07-09T12:19:25;3.75;;;2.10;;
15476;SDS011;7840;42.702;23.296;2022-07-09T12:21:53;2.33;;;2.15;;
15476;SDS011;7840;42.702;23.296;2022-07-09T12:24:24;2.17;;;2.00;;
15476;SDS011;7840;42.702;23.296;2022-07-09T12:26:52;3.28;;;2.20;;
15476;SDS011;7840;42.702;23.296;2022-07-09T12:29:22;2.00;;;1.90;;
15476;SDS011;7840;42.702;23.296;2022-07-09T12:31:50;2.20;;;2.03;;
15476;SDS011;7840;42.702;23.296;2022-07-09T12:34:18;3.10;;;1.63;;
15476;SDS011;7840;42.702;23.296;2022-07-09T12:36:47;2.15;;;1.83;;
15476;SDS011;7840;42.702;23.296;2022-07-09T12:39:15;4.20;;;2.10;;
15476;SDS011;7840;42.702;23.296;2022-07-09T12:41:43;1.88;;;1.77;;
15476;SDS011;7840;42.702;23.296;2022-07-09T12:44:14;2.10;;;1.90;;
15476;SDS011;7840;42.702;23.296;2022-07-09T12:46:42;1.95;;;1.75;;
15476;SDS011;7840;42.702;23.296;2022-07-09T12:49:10;2.08;;;1.88;;
15476;SDS011;7840;42.702;23.296;2022-07-09T12:51:52;2.55;;;1.80;;
15476;SDS011;7840;42.702;23.296;2022-07-09T12:54:23;3.90;;;2.00;;
15476;SDS011;7840;42.702;23.296;2022-07-09T12:56:52;1.65;;;1.55;;
15476;SDS011;7840;42.702;23.296;2022-07-09T12:59:20;1.88;;;1.70;;
15476;SDS011;7840;42.702;23.296;2022-07-09T13:01:48;2.22;;;2.03;;
15476;SDS011;7840;42.702;23.296;2022-07-09T13:04:16;1.98;;;1.88;;
15476;SDS011;7840;42.702;23.296;2022-07-09T13:06:43;2.55;;;2.00;;
15476;SDS011;7840;42.702;23.296;2022-07-09T13:09:13;2.75;;;1.95;;
15476;SDS011;7840;42.702;23.296;2022-07-09T13:11:41;2.03;;;1.92;;
15476;SDS011;7840;42.702;23.296;2022-07-09T13:14:09;3.47;;;2.22;;
15476;SDS011;7840;42.702;23.296;2022-07-09T13:16:37;2.28;;;2.08;;
15476;SDS011;7840;42.702;23.296;2022-07-09T13:19:04;2.00;;;1.90;;
15476;SDS011;7840;42.702;23.296;2022-07-09T13:21:34;2.22;;;2.13;;
15476;SDS011;7840;42.702;23.296;2022-07-09T13:24:02;2.17;;;1.90;;
15476;SDS011;7840;42.702;23.296;2022-07-09T13:26:31;3.38;;;2.10;;
15476;SDS011;7840;42.702;23.296;2022-07-09T13:28:59;1.70;;;1.60;;
15476;SDS011;7840;42.702;23.296;2022-07-09T13:31:30;2.85;;;1.95;;
15476;SDS011;7840;42.702;23.296;2022-07-09T13:33:58;3.10;;;2.00;;
15476;SDS011;7840;42.702;23.296;2022-07-09T13:36:26;2.72;;;2.53;;
15476;SDS011;7840;42.702;23.296;2022-07-09T13:38:53;3.88;;;2.20;;
15476;SDS011;7840;42.702;23.296;2022-07-09T13:41:23;2.30;;;2.20;;
15476;SDS011;7840;42.702;23.296;2022-07-09T13:43:52;2.28;;;2.13;;
15476;SDS011;7840;42.702;23.296;2022-07-09T13:46:20;2.60;;;2.30;;
15476;SDS011;7840;42.702;23.296;2022-07-09T13:48:49;2.08;;;1.98;;
15476;SDS011;7840;42.702;23.296;2022-07-09T13:51:20;2.42;;;2.08;;
15476;SDS011;7840;42.702;23.296;2022-07-09T13:54:10;2.20;;;2.00;;
15476;SDS011;7840;42.702;23.296;2022-07-09T13:56:43;3.17;;;2.20;;
15476;SDS011;7840;42.702;23.296;2022-07-09T13:59:12;5.45;;;2.33;;
15476;SDS011;7840;42.702;23.296;2022-07-09T14:01:40;2.13;;;2.03;;
15476;SDS011;7840;42.702;23.296;2022-07-09T14:04:08;2.92;;;1.98;;
15476;SDS011;7840;42.702;23.296;2022-07-09T14:06:36;2.80;;;2.20;;
15476;SDS011;7840;42.702;23.296;2022-07-09T14:09:04;2.95;;;2.10;;
15476;SDS011;7840;42.702;23.296;2022-07-09T14:11:34;2.35;;;2.20;;
15476;SDS011;7840;42.702;23.296;2022-07-09T14:14:20;3.00;;;2.15;;
15476;SDS011;7840;42.702;23.296;2022-07-09T14:16:47;2.38;;;2.20;;
15476;SDS011;7840;42.702;23.296;2022-07-09T14:19:15;2.05;;;1.95;;
15476;SDS011;7840;42.702;23.296;2022-07-09T14:21:43;2.25;;;2.13;;
15476;SDS011;7840;42.702;23.296;2022-07-09T14:24:11;5.15;;;2.28;;
15476;SDS011;7840;42.702;23.296;2022-07-09T14:26:41;5.03;;;2.20;;
15476;SDS011;7840;42.702;23.296;2022-07-09T14:29:10;2.25;;;2.05;;
15476;SDS011;7840;42.702;23.296;2022-07-09T14:31:39;3.05;;;2.30;;
15476;SDS011;7840;42.702;23.296;2022-07-09T14:34:07;2.65;;;2.15;;
15476;SDS011;7840;42.702;23.296;2022-07-09T14:36:35;2.45;;;2.25;;
15476;SDS011;7840;42.702;23.296;2022-07-09T14:39:03;2.92;;;2.15;;
15476;SDS011;7840;42.702;23.296;2022-07-09T14:41:30;2.47;;;2.17;;
15476;SDS011;7840;42.702;23.296;2022-07-09T14:44:03;2.45;;;2.28;;
15476;SDS011;7840;42.702;23.296;2022-07-09T14:46:31;3.15;;;2.15;;
15476;SDS011;7840;42.702;23.296;2022-07-09T14:49:05;2.22;;;2.13;;
15476;SDS011;7840;42.702;23.296;2022-07-09T14:51:33;2.50;;;2.30;;
15476;SDS011;7840;42.702;23.296;2022-07-09T14:54:03;2.85;;;2.65;;
15476;SDS011;7840;42.702;23.296;2022-07-09T14:56:32;4.13;;;2.20;;
15476;SDS011;7840;42.702;23.296;2022-07-09T14:58:59;2.42;;;2.22;;
15476;SDS011;7840;42.702;23.296;2022-07-09T15:01:28;3.60;;;2.42;;